createdAt,value
2023-02-11T00:01:32.624Z,9.40
2023-02-11T00:04:00.524Z,8.25
2023-02-11T00:06:29.467Z,8.02
2023-02-11T00:08:58.343Z,8.80
2023-02-11T00:11:30.503Z,7.70
2023-02-11T00:14:04.052Z,7.43
2023-02-11T00:16:34.405Z,8.57
2023-02-11T00:19:03.343Z,7.32
2023-02-11T00:21:30.537Z,10.50
2023-02-11T00:23:59.954Z,7.28
2023-02-11T00:26:30.205Z,9.02
2023-02-11T00:28:57.477Z,7.47
2023-02-11T00:31:25.386Z,7.63
2023-02-11T00:33:52.865Z,8.25
2023-02-11T00:36:26.923Z,8.98
2023-02-11T00:38:56.198Z,8.05
2023-02-11T00:41:23.998Z,9.48
2023-02-11T00:43:51.639Z,10.60
2023-02-11T00:46:19.055Z,8.65
2023-02-11T00:48:46.115Z,7.10
2023-02-11T00:51:16.227Z,7.10
2023-02-11T00:53:46.464Z,9.43
2023-02-11T00:56:13.668Z,10.20
2023-02-11T00:58:41.138Z,7.60
2023-02-11T01:01:08.410Z,9.88
2023-02-11T01:03:36.908Z,12.88
2023-02-11T01:06:05.140Z,9.85
2023-02-11T01:08:33.128Z,9.48
2023-02-11T01:11:08.299Z,8.90
2023-02-11T01:13:37.383Z,11.98
2023-02-11T01:16:08.089Z,11.77
2023-02-11T01:18:36.710Z,14.98
2023-02-11T01:21:04.446Z,11.63
2023-02-11T01:23:33.007Z,10.65
2023-02-11T01:26:03.381Z,12.35
2023-02-11T01:28:31.678Z,10.15
2023-02-11T01:31:01.333Z,11.57
2023-02-11T01:33:30.700Z,12.10
2023-02-11T01:36:02.117Z,11.82
2023-02-11T01:38:30.221Z,8.98
2023-02-11T01:41:01.652Z,12.00
2023-02-11T01:43:39.972Z,7.38
2023-02-11T01:46:36.162Z,10.82
2023-02-11T01:49:11.273Z,12.75
2023-02-11T01:51:43.741Z,10.10
2023-02-11T01:54:36.719Z,10.07
2023-02-11T01:57:24.881Z,9.43
2023-02-11T02:00:32.218Z,8.80
2023-02-11T02:05:50.114Z,8.68
2023-02-11T02:08:43.922Z,9.27
2023-02-11T02:11:11.616Z,10.70
2023-02-11T02:13:40.800Z,10.95
2023-02-11T02:16:13.450Z,13.02
2023-02-11T02:19:17.695Z,9.98
2023-02-11T02:22:10.661Z,9.32
2023-02-11T02:25:01.070Z,10.18
2023-02-11T02:28:09.385Z,11.98
2023-02-11T02:31:06.281Z,8.85
2023-02-11T02:33:52.259Z,16.90
2023-02-11T02:36:34.765Z,12.30
2023-02-11T02:39:21.688Z,12.48
2023-02-11T02:41:51.070Z,14.50
2023-02-11T02:44:20.934Z,13.95
2023-02-11T02:46:48.475Z,16.02
2023-02-11T02:49:19.836Z,14.88
2023-02-11T02:52:16.772Z,13.93
2023-02-11T02:55:11.779Z,10.93
2023-02-11T02:57:50.923Z,12.10
2023-02-11T03:00:48.915Z,12.57
2023-02-11T03:03:16.069Z,14.35
2023-02-11T03:06:04.512Z,13.80
2023-02-11T03:08:47.017Z,12.10
2023-02-11T03:11:17.895Z,15.52
2023-02-11T03:13:46.929Z,12.70
2023-02-11T03:16:19.962Z,14.45
2023-02-11T03:18:53.228Z,14.13
2023-02-11T03:21:21.687Z,14.45
2023-02-11T03:23:55.249Z,12.32
2023-02-11T03:26:30.670Z,12.57
2023-02-11T03:29:23.065Z,12.68
2023-02-11T03:32:04.435Z,11.15
2023-02-11T03:34:55.157Z,10.98
2023-02-11T03:37:29.540Z,12.05
2023-02-11T03:40:02.046Z,13.73
2023-02-11T03:42:46.423Z,8.68
2023-02-11T03:45:19.222Z,9.93
2023-02-11T03:47:54.480Z,9.63
2023-02-11T03:50:23.616Z,12.40
2023-02-11T03:52:52.173Z,12.10
2023-02-11T03:55:21.542Z,10.45
2023-02-11T03:57:52.079Z,10.88
2023-02-11T04:00:19.772Z,10.65
2023-02-11T04:02:47.508Z,10.52
2023-02-11T04:05:16.264Z,12.68
2023-02-11T04:07:43.466Z,10.43
2023-02-11T04:10:13.689Z,10.75
2023-02-11T04:12:40.871Z,9.50
2023-02-11T04:15:08.587Z,13.98
2023-02-11T04:17:36.007Z,13.50
2023-02-11T04:20:03.940Z,11.27
2023-02-11T04:22:31.920Z,12.75
2023-02-11T04:24:59.104Z,11.55
2023-02-11T04:27:28.448Z,12.93
2023-02-11T04:29:55.736Z,7.75
2023-02-11T04:32:23.153Z,9.43
2023-02-11T04:34:50.919Z,12.40
2023-02-11T04:37:18.508Z,11.13
2023-02-11T04:39:45.688Z,14.98
2023-02-11T04:42:13.120Z,11.30
2023-02-11T04:44:40.258Z,13.88
2023-02-11T04:47:07.957Z,12.77
2023-02-11T04:49:35.010Z,11.85
2023-02-11T04:52:06.751Z,9.07
2023-02-11T04:54:34.029Z,10.75
2023-02-11T04:57:01.151Z,12.18
2023-02-11T04:59:28.691Z,10.82
2023-02-11T05:01:56.033Z,10.60
2023-02-11T05:04:23.247Z,10.02
2023-02-11T05:06:50.634Z,10.98
2023-02-11T05:09:18.323Z,15.98
2023-02-11T05:11:47.912Z,13.18
2023-02-11T05:14:15.315Z,12.02
2023-02-11T05:16:42.615Z,9.82
2023-02-11T05:19:10.276Z,9.90
2023-02-11T05:21:37.655Z,10.85
2023-02-11T05:24:05.315Z,8.65
2023-02-11T05:26:32.810Z,10.65
2023-02-11T05:28:59.989Z,7.93
2023-02-11T05:31:27.235Z,8.20
2023-02-11T05:33:54.409Z,10.30
2023-02-11T05:36:21.545Z,10.43
2023-02-11T05:38:48.865Z,14.05
2023-02-11T05:41:15.999Z,10.07
2023-02-11T05:43:43.104Z,13.57
2023-02-11T05:46:10.714Z,14.88
2023-02-11T05:48:38.085Z,11.18
2023-02-11T05:51:05.332Z,13.00
2023-02-11T05:53:32.535Z,11.70
2023-02-11T05:55:59.710Z,11.40
2023-02-11T05:58:27.395Z,14.40
2023-02-11T06:00:55.545Z,11.43
2023-02-11T06:03:22.628Z,10.63
2023-02-11T06:05:50.099Z,12.60
2023-02-11T06:08:17.549Z,15.30
2023-02-11T06:10:45.791Z,14.73
2023-02-11T06:13:13.204Z,13.73
2023-02-11T06:15:40.381Z,13.07
2023-02-11T06:18:07.550Z,14.85
2023-02-11T06:20:35.045Z,14.15
2023-02-11T06:23:02.485Z,15.57
2023-02-11T06:25:30.760Z,15.20
2023-02-11T06:27:57.996Z,15.70
2023-02-11T06:30:25.225Z,13.05
2023-02-11T06:32:52.702Z,10.80
2023-02-11T06:35:19.929Z,19.88
2023-02-11T06:37:48.084Z,13.93
2023-02-11T06:40:16.409Z,17.40
2023-02-11T06:42:43.946Z,16.70
2023-02-11T06:45:13.348Z,13.85
2023-02-11T06:47:41.009Z,23.00
2023-02-11T06:50:11.636Z,17.45
2023-02-11T06:52:38.778Z,17.58
2023-02-11T06:55:08.830Z,13.95
2023-02-11T06:57:36.052Z,18.23
2023-02-11T07:00:07.620Z,14.20
2023-02-11T07:02:38.804Z,17.65
2023-02-11T07:05:07.565Z,19.10
2023-02-11T07:07:37.865Z,16.13
2023-02-11T07:10:08.740Z,13.05
2023-02-11T07:12:38.670Z,15.00
2023-02-11T07:15:08.648Z,17.30
2023-02-11T07:17:36.625Z,16.95
2023-02-11T07:20:04.282Z,13.10
2023-02-11T07:22:33.922Z,17.02
2023-02-11T07:25:01.095Z,13.00
2023-02-11T07:27:28.303Z,18.08
2023-02-11T07:29:55.612Z,20.23
2023-02-11T07:32:22.926Z,19.67
2023-02-11T07:34:50.284Z,17.30
2023-02-11T07:37:17.492Z,17.42
2023-02-11T07:39:44.643Z,13.48
2023-02-11T07:42:14.168Z,14.88
2023-02-11T07:44:41.419Z,16.00
2023-02-11T07:47:08.680Z,16.75
2023-02-11T07:49:35.800Z,18.25
2023-02-11T07:52:03.141Z,19.90
2023-02-11T07:54:30.662Z,14.73
2023-02-11T07:56:58.837Z,17.95
2023-02-11T07:59:27.507Z,18.05
2023-02-11T08:01:55.735Z,20.02
2023-02-11T08:04:24.479Z,24.50
2023-02-11T08:06:53.238Z,20.15
2023-02-11T08:09:20.689Z,19.70
2023-02-11T08:11:47.806Z,24.83
2023-02-11T08:14:15.418Z,25.30
2023-02-11T08:16:42.949Z,20.33
2023-02-11T08:19:15.669Z,21.55
2023-02-11T08:21:43.590Z,18.38
2023-02-11T08:24:11.043Z,20.02
2023-02-11T08:26:38.769Z,18.50
2023-02-11T08:29:12.224Z,24.33
2023-02-11T08:31:44.305Z,25.88
2023-02-11T08:34:14.400Z,23.30
2023-02-11T08:36:43.072Z,16.13
2023-02-11T08:39:20.286Z,18.50
2023-02-11T08:41:56.811Z,19.77
2023-02-11T08:44:25.038Z,20.95
2023-02-11T08:46:52.845Z,17.02
2023-02-11T08:49:20.750Z,21.13
2023-02-11T08:51:48.054Z,20.90
2023-02-11T08:54:16.156Z,22.27
2023-02-11T08:56:43.924Z,18.10
2023-02-11T08:59:15.496Z,25.15
2023-02-11T09:01:44.473Z,21.58
2023-02-11T09:04:12.078Z,23.92
2023-02-11T09:06:39.412Z,24.40
2023-02-11T09:09:06.553Z,29.05
2023-02-11T09:11:36.281Z,27.10
2023-02-11T09:14:04.908Z,24.45
2023-02-11T09:16:35.937Z,37.20
2023-02-11T09:19:05.388Z,30.95
2023-02-11T09:21:33.060Z,35.05
2023-02-11T09:24:00.353Z,30.63
2023-02-11T09:26:33.138Z,27.05
2023-02-11T09:29:01.118Z,31.95
2023-02-11T09:31:30.170Z,30.73
2023-02-11T09:34:00.102Z,25.25
2023-02-11T09:36:30.807Z,22.33
2023-02-11T09:39:00.961Z,21.63
2023-02-11T09:42:05.035Z,23.92
2023-02-11T09:44:34.824Z,19.42
2023-02-11T09:47:16.009Z,26.48
2023-02-11T09:49:51.067Z,27.10
2023-02-11T09:52:54.585Z,26.10
2023-02-11T09:55:39.762Z,21.58
2023-02-11T09:58:21.462Z,25.25
2023-02-11T10:01:04.399Z,27.38
2023-02-11T10:03:40.552Z,26.05
2023-02-11T10:06:13.356Z,26.60
2023-02-11T10:09:07.661Z,19.67
2023-02-11T10:12:13.385Z,24.88
2023-02-11T10:14:49.239Z,24.60
2023-02-11T10:17:28.336Z,25.85
2023-02-11T10:20:23.778Z,23.83
2023-02-11T10:22:54.878Z,29.80
2023-02-11T10:25:26.187Z,27.40
2023-02-11T10:27:57.882Z,25.30
2023-02-11T10:30:34.948Z,27.00
2023-02-11T10:33:12.504Z,27.52
2023-02-11T10:35:40.356Z,24.23
2023-02-11T10:38:09.201Z,28.67
2023-02-11T10:40:36.304Z,22.48
2023-02-11T10:43:07.406Z,25.90
2023-02-11T10:45:55.225Z,26.88
2023-02-11T10:48:41.403Z,24.90
2023-02-11T10:51:14.085Z,26.70
2023-02-11T10:53:41.624Z,28.92
2023-02-11T10:56:12.624Z,34.03
2023-02-11T10:59:14.468Z,27.33
2023-02-11T11:01:59.124Z,29.23
2023-02-11T11:04:44.117Z,29.85
2023-02-11T11:07:21.369Z,37.58
2023-02-11T11:10:02.954Z,30.48
2023-02-11T11:12:33.002Z,32.28
2023-02-11T11:15:11.490Z,35.10
2023-02-11T11:17:41.209Z,28.95
2023-02-11T11:20:14.964Z,30.35
2023-02-11T11:22:43.344Z,37.45
2023-02-11T11:25:30.482Z,35.47
2023-02-11T11:28:00.867Z,35.72
2023-02-11T11:30:39.198Z,28.52
2023-02-11T11:33:20.469Z,33.10
2023-02-11T11:36:25.803Z,31.20
2023-02-11T11:38:57.531Z,26.92
2023-02-11T11:41:31.038Z,32.22
2023-02-11T11:44:23.479Z,28.17
2023-02-11T11:47:07.391Z,34.40
2023-02-11T11:49:48.859Z,36.75
2023-02-11T11:52:41.445Z,34.22
2023-02-11T11:55:19.306Z,36.75
2023-02-11T11:57:46.664Z,35.42
2023-02-11T12:00:31.959Z,36.00
2023-02-11T12:03:32.533Z,35.58
2023-02-11T12:06:11.862Z,36.47
2023-02-11T12:09:00.351Z,27.52
2023-02-11T12:12:06.393Z,32.80
2023-02-11T12:15:11.206Z,28.67
2023-02-11T12:18:07.456Z,37.28
2023-02-11T12:21:08.944Z,31.80
2023-02-11T12:23:48.537Z,36.42
2023-02-11T12:26:53.299Z,31.13
2023-02-11T12:29:57.327Z,32.45
2023-02-11T12:32:44.596Z,42.30
2023-02-11T19:51:10.856Z,8.30
2023-02-11T19:53:40.355Z,9.60
2023-02-11T19:56:08.183Z,5.85
2023-02-11T19:58:36.585Z,6.03
2023-02-11T20:01:19.582Z,8.13
2023-02-11T20:03:50.939Z,8.43
2023-02-11T20:06:23.337Z,8.38
2023-02-11T20:09:02.271Z,7.40
2023-02-11T20:11:31.331Z,9.95
2023-02-11T20:13:58.853Z,7.22
2023-02-11T20:16:44.680Z,7.10
2023-02-11T20:19:18.266Z,6.18
2023-02-11T20:21:47.965Z,7.65
2023-02-11T20:24:17.896Z,6.55
2023-02-11T20:26:46.962Z,6.63
2023-02-11T20:29:15.510Z,6.57
2023-02-11T20:31:43.106Z,6.97
2023-02-11T20:34:11.548Z,6.65
2023-02-11T20:36:40.485Z,5.95
2023-02-11T20:39:08.595Z,5.93
2023-02-11T20:41:41.213Z,7.05
2023-02-11T20:44:10.942Z,6.75
2023-02-11T20:46:42.334Z,9.88
2023-02-11T20:49:16.967Z,6.57
2023-02-11T20:51:44.320Z,8.02
2023-02-11T20:54:13.833Z,7.30
2023-02-11T20:56:41.974Z,7.15
2023-02-11T20:59:09.922Z,8.10
2023-02-11T21:01:42.995Z,7.47
2023-02-11T21:04:19.749Z,7.28
2023-02-11T21:09:22.691Z,6.00
2023-02-11T21:11:52.320Z,6.90
2023-02-11T21:14:21.086Z,8.07
2023-02-11T21:16:49.165Z,7.55
2023-02-11T21:19:16.984Z,7.72
2023-02-11T21:21:44.400Z,6.30
2023-02-11T21:24:12.371Z,6.80
2023-02-11T21:26:39.659Z,8.00
2023-02-11T21:29:08.217Z,8.05
2023-02-11T21:31:37.161Z,7.53
2023-02-11T21:34:08.659Z,7.60
2023-02-11T21:36:35.990Z,8.02
2023-02-11T21:39:04.136Z,9.13
2023-02-11T21:41:31.990Z,7.18
2023-02-11T21:43:59.136Z,7.40
2023-02-11T21:46:27.706Z,8.75
2023-02-11T21:48:55.304Z,8.02
2023-02-11T21:51:24.558Z,7.90
2023-02-11T21:53:56.910Z,7.57
2023-02-11T21:56:28.728Z,7.55
2023-02-11T21:58:57.631Z,7.43
2023-02-11T22:01:31.135Z,7.68
2023-02-11T22:03:58.830Z,8.45
2023-02-11T22:06:31.042Z,9.52
2023-02-11T22:09:01.834Z,12.95
2023-02-11T22:11:29.155Z,8.25
2023-02-11T22:13:57.845Z,10.00
2023-02-11T22:16:27.183Z,8.93
2023-02-11T22:18:56.363Z,9.63
2023-02-11T22:21:25.644Z,10.35
2023-02-11T22:23:55.581Z,9.40
2023-02-11T22:28:53.634Z,9.15
2023-02-11T22:31:25.377Z,9.30
2023-02-11T22:33:52.938Z,9.73
2023-02-11T22:36:23.449Z,9.07
2023-02-11T22:38:51.788Z,8.07
2023-02-11T22:41:20.142Z,9.18
2023-02-11T22:43:51.546Z,10.02
2023-02-11T22:46:19.778Z,8.82
2023-02-11T22:48:47.718Z,9.75
2023-02-11T22:51:18.054Z,9.80
2023-02-11T22:53:49.889Z,11.23
2023-02-11T22:56:18.203Z,9.80
2023-02-11T22:58:45.647Z,11.40
2023-02-11T23:01:13.784Z,12.95
2023-02-11T23:03:41.549Z,9.45
2023-02-11T23:06:09.527Z,8.27
2023-02-11T23:08:39.429Z,7.28
2023-02-11T23:11:14.337Z,6.80
2023-02-11T23:13:43.109Z,9.25
2023-02-11T23:16:17.407Z,8.23
2023-02-11T23:18:46.295Z,12.40
2023-02-11T23:21:25.743Z,7.93
2023-02-11T23:24:02.863Z,9.15
2023-02-11T23:26:30.777Z,9.13
2023-02-11T23:28:59.381Z,8.13
2023-02-11T23:31:31.506Z,10.68
2023-02-11T23:33:58.692Z,8.25
2023-02-11T23:36:25.947Z,9.25
2023-02-11T23:38:53.510Z,8.05
2023-02-11T23:41:21.516Z,12.57
2023-02-11T23:43:54.096Z,10.00
2023-02-11T23:46:26.112Z,5.68
2023-02-11T23:48:56.138Z,9.30
2023-02-11T23:51:24.019Z,8.40
2023-02-11T23:53:52.775Z,8.70
2023-02-11T23:56:30.612Z,9.10
2023-02-11T23:58:59.073Z,10.75
